Canton, IL

6:08 AM CDT on October 17, 2019 (GMT -0500)
Prospect Heights Addition | | Change Station
Active Advisory: Flood Warning

Elev 682 ft 40.57 °N, 90.03 °W | Updated 4 minutes ago

Clear
Clear
34.3 °F
Feels Like 34 °F
N
0
Wind Variable Wind from SSW
Gusts 0.0 mph

Today
High -- | Low -- °F
--% Chance of Precip.
Yesterday
High -- | Low -- °F
Precip. -- in
Pressure 30.07 in
Visibility 10.0 miles
Clouds Clear
Windchill 34 °F
Dew Point 33 °F
Humidity 96%
Rainfall 0.00 in
Snow Depth Not available.
7:13 AM 6:17 PM
Waning Gibbous, 88% visible
METAR KPIA 171054Z 00000KT 10SM CLR 04/02 A3006 RMK AO2 SLP183 T00390017 $
Pressure 30.07 in
Visibility 10.0 miles
Clouds Clear
Windchill 34 °F
Dew Point 33 °F
Humidity 96%
Rainfall 0.00 in
Snow Depth Not available.
7:13 AM 6:17 PM
Waning Gibbous, 88% visible
METAR KPIA 171054Z 00000KT 10SM CLR 04/02 A3006 RMK AO2 SLP183 T00390017 $

Get Your Daily Forecast Email!

Thanks for signing up!

Be on the lookout for a verification email in your inbox.

You'll start receiving severe weather alerts in your inbox..

×

10-Day Weather Forecast

Almanac

Astronomy

Oct. 17, 2019 Rise Set
Actual Time
Civil Twilight
Nautical Twilight
Astronomical Twilight
Moon
Length of Visible Light
Length of Day
Tomorrow will be .
, % of the Moon is Illuminated

Today's Extremes

State Highs State Lows

Community

WunderPhotos

Category 6

Welcome to Category 6. This is the collective home for Weather Underground's featured writeups by Dr. Jeff Masters (right), Bob Henson (left), Chris Burt, and other regular contributors.

Nearby

Air Quality

  Air Quality AQ Index Pollutant
Not available.

Snow Depth

Station Depth Elevation

Earthquake Activity

City Distance Mag. Time & Date
Minimum magnitude displayed is 2.5.

Coastal Water Temperatures

Place Temperature

Stations

Nearby Weather Stations

Station Location Temp. Windchill Dew Point Humidity Wind Precip. Elev Updated Type
                   

Watches & Warnings

Flood Warning
Issued: 8:13 PM CDT Oct. 16, 2019 – National Weather Service

The Flood Warning continues for
the Illinois River near Havana.
* Until Monday morning.
* At 745 PM Wednesday the stage was 15.3 feet.
* Flood stage is 14.0 feet.
* Minor flooding is occurring and minor flooding is forecast.
* Forecast... the river will continue to fall to below flood stage by
early Monday morning.
* Impact... at 14.0 feet... minor flooding begins to agricultural areas
not protected by levees.



                  Fld observed forecast 6am
location stg stg day time Thu Fri Sat

Illinois River
Havana 14 15.3 Wed 8 PM 15.2 14.9 14.6



Lat... Lon 4053 8988 4047 8980 4034 9002 4012 9017
      4018 9023 4039 9010